HOURLY OBS INDEX

043

Maranoa

ROMA AIRPORT

Site: 043091
Alt: 307.4m
2km NNW of ROMA


  Time     Wind        Temp  DP   Baro     Rain since   Rain past  Vis(m), Cloud(base in m), Weather
  local        km/h                         9am  last   hr   10m    
Tue 20:00  WSW 13/ 13   6.4 -2.0  1024.1    0.0   0.0   0.0   0.0   10000 
Tue 20:30  WSW 13/ 15   6.3 -1.8  1024.4    0.0   0.0   0.0   0.0   10000 
Tue 21:00    W 13/ 15   5.7 -2.1  1024.6    0.0   0.0   0.0   0.0   10000 
Tue 21:30  WSW 13/ 15   5.1 -2.2  1024.6    0.0   0.0   0.0   0.0   10000 
Tue 22:00  WSW 11/ 13   4.4 -2.7  1024.6    0.0   0.0   0.0   0.0   10000 
Tue 22:30    W 11/ 13   4.3 -1.9  1024.7    0.0   0.0   0.0   0.0   10000 
Tue 23:00    W 13/ 15   4.5 -1.7  1024.8    0.0   0.0   0.0   0.0   10000 
Tue 23:30  WSW 15/ 15   5.2 -1.9  1024.8    0.0   0.0   0.0   0.0   10000 
Wed 00:00  WSW 13/ 15   4.8 -2.3  1024.9    0.0   0.0   0.0   0.0   10000 
Wed 00:30    C  0/  6   1.3 -4.7  1024.7    0.0   0.0   0.0   0.0   10000 
Wed 01:00    C  0/  0   1.1 -3.7  1024.6    0.0   0.0   0.0   0.0   10000 
Wed 01:00    C  0/  0   1.1 -3.7  1024.6    0.0   0.0  ----   0.0   10000 

ST GEORGE AIRPORT

Site: 043109
Alt: 198.5m
4km SSE of ST GEORGE


  Time     Wind        Temp  DP   Baro     Rain since   Rain past  Vis(m), Cloud(base in m), Weather
  local        km/h                         9am  last   hr   10m    
Tue 20:00  WSW 11/ 13   7.8 -2.2  1024.3    0.0   0.0   0.0   0.0   10000 
Tue 20:30  WSW 11/ 13   8.1 -0.9  1024.4    0.0   0.0   0.0   0.0   10000 
Tue 21:00  WSW 11/ 11   6.7 -1.9  1024.6    0.0   0.0   0.0   0.0   10000 
Tue 21:30  WSW  7/  9   7.5 -0.7  1024.5    0.0   0.0   0.0   0.0   10000 
Tue 22:00  WSW 13/ 13   5.4 -2.7  1024.8    0.0   0.0   0.0   0.0   10000 
Tue 22:30  WSW 11/ 13   5.7 -1.7  1024.8    0.0   0.0   0.0   0.0   10000 
Tue 23:00  WSW 13/ 13   5.5 -2.3  1024.8    0.0   0.0   0.0   0.0   10000 
Tue 23:30  WSW 13/ 15   6.1 -1.3  1024.8    0.0   0.0   0.0   0.0   10000 
Wed 00:00  WSW 13/ 15   5.9 -1.7  1024.8    0.0   0.0   0.0   0.0   10000 
Wed 00:30  WSW 13/ 15   5.5 -1.6  1024.9    0.0   0.0   0.0   0.0   10000 
Wed 01:00   SW 11/ 13   5.3 -1.6  1024.6    0.0   0.0   0.0   0.0   10000 
Wed 01:00   SW 11/ 13   5.3 -1.6  1024.6    0.0   0.0  ----   0.0   10000